sensor_id;sensor_type;location;lat;lon;timestamp;P1;durP1;ratioP1;P2;durP2;ratioP2
20449;SDS011;10384;51.940;8.432;2022-12-29T00:01:40;1.50;;;0.83;;
20449;SDS011;10384;51.940;8.432;2022-12-29T00:04:06;1.33;;;1.00;;
20449;SDS011;10384;51.940;8.432;2022-12-29T00:06:32;2.00;;;1.03;;
20449;SDS011;10384;51.940;8.432;2022-12-29T00:08:58;1.17;;;1.03;;
20449;SDS011;10384;51.940;8.432;2022-12-29T00:11:25;1.87;;;1.27;;
20449;SDS011;10384;51.940;8.432;2022-12-29T00:13:51;1.53;;;0.87;;
20449;SDS011;10384;51.940;8.432;2022-12-29T00:16:36;1.03;;;0.70;;
20449;SDS011;10384;51.940;8.432;2022-12-29T00:19:03;1.73;;;0.90;;
20449;SDS011;10384;51.940;8.432;2022-12-29T00:21:29;1.23;;;1.00;;
20449;SDS011;10384;51.940;8.432;2022-12-29T00:24:18;3.20;;;1.20;;
20449;SDS011;10384;51.940;8.432;2022-12-29T00:26:55;1.70;;;0.90;;
20449;SDS011;10384;51.940;8.432;2022-12-29T00:29:42;1.37;;;0.90;;
20449;SDS011;10384;51.940;8.432;2022-12-29T00:32:27;1.27;;;0.90;;
20449;SDS011;10384;51.940;8.432;2022-12-29T00:35:23;2.07;;;1.10;;
20449;SDS011;10384;51.940;8.432;2022-12-29T00:37:50;1.70;;;1.10;;
20449;SDS011;10384;51.940;8.432;2022-12-29T00:40:34;1.03;;;0.90;;
20449;SDS011;10384;51.940;8.432;2022-12-29T00:43:19;1.90;;;1.10;;
20449;SDS011;10384;51.940;8.432;2022-12-29T00:46:04;1.27;;;0.90;;
20449;SDS011;10384;51.940;8.432;2022-12-29T00:48:30;3.30;;;1.20;;
20449;SDS011;10384;51.940;8.432;2022-12-29T00:51:14;2.17;;;0.90;;
20449;SDS011;10384;51.940;8.432;2022-12-29T00:53:40;1.53;;;0.97;;
20449;SDS011;10384;51.940;8.432;2022-12-29T00:56:07;1.23;;;0.90;;
20449;SDS011;10384;51.940;8.432;2022-12-29T00:58:33;1.53;;;0.90;;
20449;SDS011;10384;51.940;8.432;2022-12-29T01:01:02;3.80;;;1.20;;
20449;SDS011;10384;51.940;8.432;2022-12-29T01:03:28;1.57;;;0.90;;
20449;SDS011;10384;51.940;8.432;2022-12-29T01:05:54;0.97;;;0.87;;
20449;SDS011;10384;51.940;8.432;2022-12-29T01:08:20;1.57;;;0.80;;
20449;SDS011;10384;51.940;8.432;2022-12-29T01:10:46;2.40;;;0.90;;
20449;SDS011;10384;51.940;8.432;2022-12-29T01:13:12;1.00;;;0.80;;
20449;SDS011;10384;51.940;8.432;2022-12-29T01:15:38;2.27;;;1.00;;
20449;SDS011;10384;51.940;8.432;2022-12-29T01:18:04;1.30;;;0.83;;
20449;SDS011;10384;51.940;8.432;2022-12-29T01:20:30;0.60;;;0.60;;
20449;SDS011;10384;51.940;8.432;2022-12-29T01:22:56;0.93;;;0.60;;
20449;SDS011;10384;51.940;8.432;2022-12-29T01:25:22;1.30;;;0.70;;
20449;SDS011;10384;51.940;8.432;2022-12-29T01:27:48;0.80;;;0.70;;
20449;SDS011;10384;51.940;8.432;2022-12-29T01:30:14;0.80;;;0.70;;
20449;SDS011;10384;51.940;8.432;2022-12-29T01:32:39;1.10;;;0.70;;
20449;SDS011;10384;51.940;8.432;2022-12-29T01:35:06;1.13;;;0.60;;
20449;SDS011;10384;51.940;8.432;2022-12-29T01:37:32;0.70;;;0.60;;
20449;SDS011;10384;51.940;8.432;2022-12-29T01:39:58;0.80;;;0.60;;
20449;SDS011;10384;51.940;8.432;2022-12-29T01:42:24;0.97;;;0.77;;
20449;SDS011;10384;51.940;8.432;2022-12-29T01:47:41;1.10;;;0.60;;
20449;SDS011;10384;51.940;8.432;2022-12-29T01:50:10;6.60;;;0.80;;
20449;SDS011;10384;51.940;8.432;2022-12-29T01:52:38;1.60;;;0.60;;
20449;SDS011;10384;51.940;8.432;2022-12-29T01:55:07;1.30;;;0.73;;
20449;SDS011;10384;51.940;8.432;2022-12-29T01:57:37;0.63;;;0.50;;
20449;SDS011;10384;51.940;8.432;2022-12-29T02:00:06;2.40;;;0.80;;
20449;SDS011;10384;51.940;8.432;2022-12-29T02:02:33;0.60;;;0.50;;
20449;SDS011;10384;51.940;8.432;2022-12-29T02:05:01;0.73;;;0.50;;
20449;SDS011;10384;51.940;8.432;2022-12-29T02:07:30;0.60;;;0.47;;
20449;SDS011;10384;51.940;8.432;2022-12-29T02:09:57;1.67;;;0.87;;
20449;SDS011;10384;51.940;8.432;2022-12-29T02:12:23;0.37;;;0.37;;
20449;SDS011;10384;51.940;8.432;2022-12-29T02:14:50;1.00;;;0.60;;
20449;SDS011;10384;51.940;8.432;2022-12-29T02:22:42;1.13;;;0.63;;
20449;SDS011;10384;51.940;8.432;2022-12-29T02:27:58;1.37;;;0.60;;
20449;SDS011;10384;51.940;8.432;2022-12-29T02:35:29;1.17;;;0.60;;
20449;SDS011;10384;51.940;8.432;2022-12-29T02:37:59;0.97;;;0.70;;
20449;SDS011;10384;51.940;8.432;2022-12-29T02:40:42;0.90;;;0.50;;
20449;SDS011;10384;51.940;8.432;2022-12-29T02:43:13;0.60;;;0.50;;
20449;SDS011;10384;51.940;8.432;2022-12-29T02:45:58;1.53;;;0.50;;
20449;SDS011;10384;51.940;8.432;2022-12-29T02:48:31;0.40;;;0.40;;
20449;SDS011;10384;51.940;8.432;2022-12-29T02:51:00;0.50;;;0.50;;
20449;SDS011;10384;51.940;8.432;2022-12-29T02:53:27;0.30;;;0.30;;
20449;SDS011;10384;51.940;8.432;2022-12-29T02:56:13;0.63;;;0.43;;
20449;SDS011;10384;51.940;8.432;2022-12-29T02:58:39;0.77;;;0.40;;
20449;SDS011;10384;51.940;8.432;2022-12-29T03:04:02;0.33;;;0.33;;
20449;SDS011;10384;51.940;8.432;2022-12-29T03:06:27;0.67;;;0.53;;
20449;SDS011;10384;51.940;8.432;2022-12-29T03:11:27;0.43;;;0.30;;
20449;SDS011;10384;51.940;8.432;2022-12-29T03:17:46;0.40;;;0.40;;
20449;SDS011;10384;51.940;8.432;2022-12-29T03:20:18;0.50;;;0.50;;
20449;SDS011;10384;51.940;8.432;2022-12-29T03:22:47;0.40;;;0.40;;
20449;SDS011;10384;51.940;8.432;2022-12-29T03:25:21;0.40;;;0.40;;
20449;SDS011;10384;51.940;8.432;2022-12-29T03:27:50;0.50;;;0.40;;
20449;SDS011;10384;51.940;8.432;2022-12-29T03:30:18;0.30;;;0.30;;
20449;SDS011;10384;51.940;8.432;2022-12-29T03:35:11;2.20;;;0.50;;
20449;SDS011;10384;51.940;8.432;2022-12-29T03:37:41;1.53;;;0.50;;
20449;SDS011;10384;51.940;8.432;2022-12-29T03:40:08;0.40;;;0.30;;
20449;SDS011;10384;51.940;8.432;2022-12-29T03:42:35;0.63;;;0.50;;
20449;SDS011;10384;51.940;8.432;2022-12-29T03:45:01;0.40;;;0.40;;
20449;SDS011;10384;51.940;8.432;2022-12-29T03:47:27;0.40;;;0.40;;
20449;SDS011;10384;51.940;8.432;2022-12-29T03:49:53;0.30;;;0.30;;
20449;SDS011;10384;51.940;8.432;2022-12-29T03:52:19;0.97;;;0.50;;
20449;SDS011;10384;51.940;8.432;2022-12-29T03:54:45;0.50;;;0.40;;
20449;SDS011;10384;51.940;8.432;2022-12-29T03:57:11;0.40;;;0.40;;
20449;SDS011;10384;51.940;8.432;2022-12-29T03:59:37;0.73;;;0.53;;
20449;SDS011;10384;51.940;8.432;2022-12-29T04:02:03;0.37;;;0.37;;
20449;SDS011;10384;51.940;8.432;2022-12-29T04:04:29;0.50;;;0.40;;
20449;SDS011;10384;51.940;8.432;2022-12-29T04:06:55;0.77;;;0.47;;
20449;SDS011;10384;51.940;8.432;2022-12-29T04:09:21;1.13;;;0.50;;
20449;SDS011;10384;51.940;8.432;2022-12-29T04:11:47;1.10;;;0.43;;
20449;SDS011;10384;51.940;8.432;2022-12-29T04:14:13;0.33;;;0.33;;
20449;SDS011;10384;51.940;8.432;2022-12-29T04:16:39;0.43;;;0.40;;
20449;SDS011;10384;51.940;8.432;2022-12-29T04:19:06;0.50;;;0.50;;
20449;SDS011;10384;51.940;8.432;2022-12-29T04:21:32;1.03;;;0.60;;
20449;SDS011;10384;51.940;8.432;2022-12-29T04:23:58;1.33;;;0.47;;
20449;SDS011;10384;51.940;8.432;2022-12-29T04:26:24;0.73;;;0.60;;
20449;SDS011;10384;51.940;8.432;2022-12-29T04:28:50;0.30;;;0.30;;
20449;SDS011;10384;51.940;8.432;2022-12-29T04:31:16;1.60;;;0.40;;
20449;SDS011;10384;51.940;8.432;2022-12-29T04:33:42;2.30;;;0.70;;
20449;SDS011;10384;51.940;8.432;2022-12-29T04:36:08;0.83;;;0.40;;
20449;SDS011;10384;51.940;8.432;2022-12-29T04:38:34;0.40;;;0.40;;
20449;SDS011;10384;51.940;8.432;2022-12-29T04:41:01;0.50;;;0.40;;
20449;SDS011;10384;51.940;8.432;2022-12-29T04:43:27;0.47;;;0.40;;
20449;SDS011;10384;51.940;8.432;2022-12-29T04:45:53;1.77;;;0.40;;
20449;SDS011;10384;51.940;8.432;2022-12-29T04:48:19;0.63;;;0.60;;
20449;SDS011;10384;51.940;8.432;2022-12-29T04:50:46;2.07;;;0.50;;
20449;SDS011;10384;51.940;8.432;2022-12-29T04:53:12;0.40;;;0.40;;
20449;SDS011;10384;51.940;8.432;2022-12-29T04:55:38;1.60;;;0.50;;
20449;SDS011;10384;51.940;8.432;2022-12-29T04:58:04;0.73;;;0.50;;
20449;SDS011;10384;51.940;8.432;2022-12-29T05:00:30;0.43;;;0.40;;
20449;SDS011;10384;51.940;8.432;2022-12-29T05:02:56;1.47;;;0.30;;
20449;SDS011;10384;51.940;8.432;2022-12-29T05:05:22;1.70;;;0.47;;
20449;SDS011;10384;51.940;8.432;2022-12-29T05:07:48;0.50;;;0.40;;
20449;SDS011;10384;51.940;8.432;2022-12-29T05:10:14;0.50;;;0.40;;
20449;SDS011;10384;51.940;8.432;2022-12-29T05:12:40;1.57;;;0.57;;
20449;SDS011;10384;51.940;8.432;2022-12-29T05:15:07;0.50;;;0.50;;
20449;SDS011;10384;51.940;8.432;2022-12-29T05:17:33;4.17;;;0.60;;
20449;SDS011;10384;51.940;8.432;2022-12-29T05:19:59;1.27;;;0.40;;
20449;SDS011;10384;51.940;8.432;2022-12-29T05:22:25;1.03;;;0.43;;
20449;SDS011;10384;51.940;8.432;2022-12-29T05:24:51;0.80;;;0.60;;
20449;SDS011;10384;51.940;8.432;2022-12-29T05:27:17;0.80;;;0.50;;
20449;SDS011;10384;51.940;8.432;2022-12-29T05:29:43;1.03;;;0.50;;
20449;SDS011;10384;51.940;8.432;2022-12-29T05:32:09;0.77;;;0.60;;
20449;SDS011;10384;51.940;8.432;2022-12-29T05:34:35;0.47;;;0.40;;
20449;SDS011;10384;51.940;8.432;2022-12-29T05:37:01;0.67;;;0.53;;
20449;SDS011;10384;51.940;8.432;2022-12-29T05:39:28;0.50;;;0.43;;
20449;SDS011;10384;51.940;8.432;2022-12-29T05:41:54;0.97;;;0.40;;
20449;SDS011;10384;51.940;8.432;2022-12-29T05:44:20;0.63;;;0.50;;
20449;SDS011;10384;51.940;8.432;2022-12-29T05:46:46;0.70;;;0.40;;
20449;SDS011;10384;51.940;8.432;2022-12-29T05:49:12;1.93;;;0.50;;
20449;SDS011;10384;51.940;8.432;2022-12-29T05:51:38;0.80;;;0.50;;
20449;SDS011;10384;51.940;8.432;2022-12-29T05:54:04;0.50;;;0.50;;
20449;SDS011;10384;51.940;8.432;2022-12-29T05:56:30;1.73;;;0.50;;
20449;SDS011;10384;51.940;8.432;2022-12-29T05:58:56;0.53;;;0.53;;
20449;SDS011;10384;51.940;8.432;2022-12-29T06:01:22;0.40;;;0.40;;
20449;SDS011;10384;51.940;8.432;2022-12-29T06:03:48;0.77;;;0.60;;
20449;SDS011;10384;51.940;8.432;2022-12-29T06:06:14;0.50;;;0.50;;
20449;SDS011;10384;51.940;8.432;2022-12-29T06:08:40;1.10;;;0.47;;
20449;SDS011;10384;51.940;8.432;2022-12-29T06:11:06;0.37;;;0.37;;
20449;SDS011;10384;51.940;8.432;2022-12-29T06:13:32;0.60;;;0.40;;
20449;SDS011;10384;51.940;8.432;2022-12-29T06:15:58;0.80;;;0.50;;
20449;SDS011;10384;51.940;8.432;2022-12-29T06:18:24;0.70;;;0.50;;
20449;SDS011;10384;51.940;8.432;2022-12-29T06:20:50;0.60;;;0.50;;
20449;SDS011;10384;51.940;8.432;2022-12-29T06:23:16;0.83;;;0.60;;
20449;SDS011;10384;51.940;8.432;2022-12-29T06:25:43;0.90;;;0.90;;
20449;SDS011;10384;51.940;8.432;2022-12-29T06:28:09;1.57;;;1.00;;
20449;SDS011;10384;51.940;8.432;2022-12-29T06:30:35;2.10;;;0.97;;
20449;SDS011;10384;51.940;8.432;2022-12-29T06:33:01;1.57;;;0.67;;
20449;SDS011;10384;51.940;8.432;2022-12-29T06:35:27;3.20;;;0.60;;
20449;SDS011;10384;51.940;8.432;2022-12-29T06:37:53;0.53;;;0.53;;
20449;SDS011;10384;51.940;8.432;2022-12-29T06:40:19;0.97;;;0.70;;
20449;SDS011;10384;51.940;8.432;2022-12-29T06:42:46;0.63;;;0.63;;
20449;SDS011;10384;51.940;8.432;2022-12-29T06:45:12;0.60;;;0.57;;
20449;SDS011;10384;51.940;8.432;2022-12-29T06:47:38;2.30;;;0.57;;
20449;SDS011;10384;51.940;8.432;2022-12-29T06:50:04;1.40;;;0.83;;
20449;SDS011;10384;51.940;8.432;2022-12-29T06:52:30;0.60;;;0.60;;
20449;SDS011;10384;51.940;8.432;2022-12-29T06:54:56;0.70;;;0.70;;
20449;SDS011;10384;51.940;8.432;2022-12-29T06:57:23;1.10;;;0.83;;
20449;SDS011;10384;51.940;8.432;2022-12-29T06:59:51;1.27;;;0.87;;
20449;SDS011;10384;51.940;8.432;2022-12-29T07:02:17;1.63;;;0.63;;
20449;SDS011;10384;51.940;8.432;2022-12-29T07:04:44;1.73;;;0.70;;
20449;SDS011;10384;51.940;8.432;2022-12-29T07:07:10;0.80;;;0.57;;
20449;SDS011;10384;51.940;8.432;2022-12-29T07:09:36;2.03;;;0.67;;
20449;SDS011;10384;51.940;8.432;2022-12-29T07:12:02;0.90;;;0.70;;
20449;SDS011;10384;51.940;8.432;2022-12-29T07:14:28;1.03;;;0.70;;
20449;SDS011;10384;51.940;8.432;2022-12-29T07:16:54;0.90;;;0.60;;
20449;SDS011;10384;51.940;8.432;2022-12-29T07:19:20;0.70;;;0.60;;
20449;SDS011;10384;51.940;8.432;2022-12-29T07:21:46;2.03;;;0.80;;
20449;SDS011;10384;51.940;8.432;2022-12-29T07:24:12;1.37;;;0.57;;
20449;SDS011;10384;51.940;8.432;2022-12-29T07:26:37;1.87;;;1.70;;
20449;SDS011;10384;51.940;8.432;2022-12-29T07:29:04;1.30;;;0.80;;
20449;SDS011;10384;51.940;8.432;2022-12-29T07:31:30;0.90;;;0.73;;
20449;SDS011;10384;51.940;8.432;2022-12-29T07:33:56;3.13;;;0.83;;
20449;SDS011;10384;51.940;8.432;2022-12-29T07:36:22;1.40;;;0.97;;
20449;SDS011;10384;51.940;8.432;2022-12-29T07:38:48;4.30;;;1.63;;
20449;SDS011;10384;51.940;8.432;2022-12-29T07:41:14;2.97;;;0.70;;
20449;SDS011;10384;51.940;8.432;2022-12-29T07:43:40;2.67;;;0.70;;
20449;SDS011;10384;51.940;8.432;2022-12-29T07:46:06;1.03;;;0.73;;
20449;SDS011;10384;51.940;8.432;2022-12-29T07:48:33;2.03;;;0.70;;
20449;SDS011;10384;51.940;8.432;2022-12-29T07:51:00;2.47;;;0.97;;
20449;SDS011;10384;51.940;8.432;2022-12-29T07:53:26;2.40;;;0.90;;
20449;SDS011;10384;51.940;8.432;2022-12-29T07:55:52;2.00;;;0.70;;
20449;SDS011;10384;51.940;8.432;2022-12-29T07:58:18;1.53;;;0.83;;
20449;SDS011;10384;51.940;8.432;2022-12-29T08:00:44;1.73;;;1.00;;
20449;SDS011;10384;51.940;8.432;2022-12-29T08:03:10;1.83;;;1.00;;
20449;SDS011;10384;51.940;8.432;2022-12-29T08:05:36;3.23;;;0.63;;
20449;SDS011;10384;51.940;8.432;2022-12-29T08:08:02;1.37;;;0.80;;
20449;SDS011;10384;51.940;8.432;2022-12-29T08:10:28;1.00;;;0.60;;
20449;SDS011;10384;51.940;8.432;2022-12-29T08:12:54;1.60;;;0.80;;
20449;SDS011;10384;51.940;8.432;2022-12-29T08:15:20;1.17;;;0.70;;
20449;SDS011;10384;51.940;8.432;2022-12-29T08:17:46;1.23;;;0.80;;
20449;SDS011;10384;51.940;8.432;2022-12-29T08:20:12;2.47;;;0.90;;
20449;SDS011;10384;51.940;8.432;2022-12-29T08:22:38;5.40;;;0.80;;
20449;SDS011;10384;51.940;8.432;2022-12-29T08:25:04;3.17;;;1.10;;
20449;SDS011;10384;51.940;8.432;2022-12-29T08:27:30;1.93;;;0.83;;
20449;SDS011;10384;51.940;8.432;2022-12-29T08:29:56;2.03;;;1.00;;
20449;SDS011;10384;51.940;8.432;2022-12-29T08:32:22;2.70;;;0.80;;
20449;SDS011;10384;51.940;8.432;2022-12-29T08:34:48;1.57;;;1.10;;
20449;SDS011;10384;51.940;8.432;2022-12-29T08:37:14;1.70;;;0.80;;
20449;SDS011;10384;51.940;8.432;2022-12-29T08:39:40;4.77;;;0.87;;
20449;SDS011;10384;51.940;8.432;2022-12-29T08:42:06;2.57;;;0.93;;
20449;SDS011;10384;51.940;8.432;2022-12-29T08:44:32;2.53;;;0.90;;
20449;SDS011;10384;51.940;8.432;2022-12-29T08:46:58;0.83;;;0.80;;
20449;SDS011;10384;51.940;8.432;2022-12-29T08:49:24;2.07;;;1.00;;
20449;SDS011;10384;51.940;8.432;2022-12-29T08:51:50;2.93;;;0.90;;
20449;SDS011;10384;51.940;8.432;2022-12-29T08:54:16;2.30;;;0.90;;
20449;SDS011;10384;51.940;8.432;2022-12-29T08:56:41;2.83;;;0.90;;
20449;SDS011;10384;51.940;8.432;2022-12-29T08:59:07;1.03;;;0.77;;
20449;SDS011;10384;51.940;8.432;2022-12-29T09:01:33;1.30;;;0.83;;
20449;SDS011;10384;51.940;8.432;2022-12-29T09:04:01;1.90;;;0.70;;
20449;SDS011;10384;51.940;8.432;2022-12-29T09:06:27;1.87;;;0.90;;
20449;SDS011;10384;51.940;8.432;2022-12-29T09:08:53;3.60;;;0.97;;
20449;SDS011;10384;51.940;8.432;2022-12-29T09:11:21;3.13;;;0.90;;
20449;SDS011;10384;51.940;8.432;2022-12-29T09:13:47;2.80;;;1.10;;
20449;SDS011;10384;51.940;8.432;2022-12-29T09:16:13;4.40;;;1.10;;
20449;SDS011;10384;51.940;8.432;2022-12-29T09:18:40;2.07;;;1.10;;
20449;SDS011;10384;51.940;8.432;2022-12-29T09:21:06;3.40;;;1.90;;
20449;SDS011;10384;51.940;8.432;2022-12-29T09:23:32;4.23;;;1.33;;
20449;SDS011;10384;51.940;8.432;2022-12-29T09:25:59;1.97;;;1.10;;
20449;SDS011;10384;51.940;8.432;2022-12-29T09:28:25;2.13;;;1.20;;
20449;SDS011;10384;51.940;8.432;2022-12-29T09:30:51;7.17;;;1.30;;
20449;SDS011;10384;51.940;8.432;2022-12-29T09:33:17;2.87;;;1.13;;
20449;SDS011;10384;51.940;8.432;2022-12-29T09:35:44;3.33;;;1.40;;
20449;SDS011;10384;51.940;8.432;2022-12-29T09:38:10;1.00;;;0.90;;
20449;SDS011;10384;51.940;8.432;2022-12-29T09:40:37;5.40;;;1.27;;
20449;SDS011;10384;51.940;8.432;2022-12-29T09:43:28;4.73;;;1.00;;
20449;SDS011;10384;51.940;8.432;2022-12-29T09:48:27;2.93;;;0.73;;
20449;SDS011;10384;51.940;8.432;2022-12-29T09:50:57;2.43;;;1.00;;
20449;SDS011;10384;51.940;8.432;2022-12-29T09:53:29;7.20;;;1.10;;
20449;SDS011;10384;51.940;8.432;2022-12-29T09:55:59;4.00;;;1.30;;
20449;SDS011;10384;51.940;8.432;2022-12-29T09:58:28;2.57;;;1.07;;
20449;SDS011;10384;51.940;8.432;2022-12-29T10:00:58;6.23;;;1.23;;
20449;SDS011;10384;51.940;8.432;2022-12-29T10:03:59;3.23;;;1.10;;
20449;SDS011;10384;51.940;8.432;2022-12-29T10:09:17;3.23;;;0.83;;
20449;SDS011;10384;51.940;8.432;2022-12-29T10:11:57;5.07;;;1.00;;
20449;SDS011;10384;51.940;8.432;2022-12-29T10:19:38;3.43;;;1.17;;
20449;SDS011;10384;51.940;8.432;2022-12-29T10:24:43;2.70;;;0.83;;
20449;SDS011;10384;51.940;8.432;2022-12-29T10:27:12;4.17;;;1.07;;
20449;SDS011;10384;51.940;8.432;2022-12-29T10:29:41;3.17;;;1.07;;
20449;SDS011;10384;51.940;8.432;2022-12-29T10:32:17;5.23;;;1.00;;
20449;SDS011;10384;51.940;8.432;2022-12-29T10:34:47;2.60;;;1.00;;
20449;SDS011;10384;51.940;8.432;2022-12-29T10:39:50;2.20;;;0.90;;
20449;SDS011;10384;51.940;8.432;2022-12-29T10:42:27;3.37;;;0.77;;
20449;SDS011;10384;51.940;8.432;2022-12-29T10:44:54;3.60;;;0.70;;
20449;SDS011;10384;51.940;8.432;2022-12-29T10:47:24;4.63;;;1.10;;
20449;SDS011;10384;51.940;8.432;2022-12-29T10:49:50;1.57;;;0.70;;
20449;SDS011;10384;51.940;8.432;2022-12-29T10:52:17;5.90;;;0.80;;
20449;SDS011;10384;51.940;8.432;2022-12-29T10:54:53;4.07;;;0.70;;
20449;SDS011;10384;51.940;8.432;2022-12-29T10:57:27;1.60;;;0.90;;
20449;SDS011;10384;51.940;8.432;2022-12-29T10:59:54;4.90;;;1.00;;
20449;SDS011;10384;51.940;8.432;2022-12-29T11:07:12;4.17;;;0.70;;
20449;SDS011;10384;51.940;8.432;2022-12-29T11:09:38;4.50;;;0.53;;
20449;SDS011;10384;51.940;8.432;2022-12-29T11:12:17;6.60;;;0.77;;
20449;SDS011;10384;51.940;8.432;2022-12-29T11:14:44;0.60;;;0.43;;
20449;SDS011;10384;51.940;8.432;2022-12-29T11:17:14;2.47;;;1.17;;
20449;SDS011;10384;51.940;8.432;2022-12-29T11:19:40;2.53;;;0.90;;
20449;SDS011;10384;51.940;8.432;2022-12-29T11:22:23;3.53;;;1.10;;
20449;SDS011;10384;51.940;8.432;2022-12-29T11:24:50;3.00;;;1.10;;
20449;SDS011;10384;51.940;8.432;2022-12-29T11:27:18;3.87;;;1.10;;
20449;SDS011;10384;51.940;8.432;2022-12-29T11:29:47;5.03;;;0.80;;
20449;SDS011;10384;51.940;8.432;2022-12-29T11:32:21;4.33;;;1.03;;
20449;SDS011;10384;51.940;8.432;2022-12-29T11:34:47;1.63;;;1.00;;
20449;SDS011;10384;51.940;8.432;2022-12-29T11:37:25;2.13;;;0.90;;
20449;SDS011;10384;51.940;8.432;2022-12-29T11:39:56;5.90;;;0.90;;
20449;SDS011;10384;51.940;8.432;2022-12-29T11:42:29;4.27;;;0.97;;
20449;SDS011;10384;51.940;8.432;2022-12-29T11:44:58;2.70;;;1.17;;
20449;SDS011;10384;51.940;8.432;2022-12-29T11:47:29;3.33;;;1.00;;
20449;SDS011;10384;51.940;8.432;2022-12-29T11:50:05;3.70;;;0.90;;
20449;SDS011;10384;51.940;8.432;2022-12-29T11:52:34;3.13;;;0.80;;
20449;SDS011;10384;51.940;8.432;2022-12-29T11:55:01;1.67;;;0.80;;
20449;SDS011;10384;51.940;8.432;2022-12-29T11:57:28;2.77;;;0.80;;
20449;SDS011;10384;51.940;8.432;2022-12-29T11:59:55;3.50;;;1.00;;
20449;SDS011;10384;51.940;8.432;2022-12-29T12:02:26;5.40;;;1.00;;
20449;SDS011;10384;51.940;8.432;2022-12-29T12:05:01;4.23;;;1.00;;
20449;SDS011;10384;51.940;8.432;2022-12-29T12:07:40;5.17;;;1.30;;
20449;SDS011;10384;51.940;8.432;2022-12-29T12:10:11;2.10;;;0.83;;
20449;SDS011;10384;51.940;8.432;2022-12-29T12:12:45;5.90;;;2.00;;
20449;SDS011;10384;51.940;8.432;2022-12-29T12:15:17;4.00;;;0.97;;
20449;SDS011;10384;51.940;8.432;2022-12-29T12:17:50;4.30;;;1.03;;
20449;SDS011;10384;51.940;8.432;2022-12-29T12:20:28;1.50;;;0.80;;
20449;SDS011;10384;51.940;8.432;2022-12-29T12:23:13;8.23;;;1.13;;
20449;SDS011;10384;51.940;8.432;2022-12-29T12:25:48;2.80;;;1.00;;
20449;SDS011;10384;51.940;8.432;2022-12-29T12:28:23;6.00;;;1.03;;
20449;SDS011;10384;51.940;8.432;2022-12-29T12:30:52;3.47;;;0.97;;
20449;SDS011;10384;51.940;8.432;2022-12-29T12:33:22;3.00;;;0.70;;
20449;SDS011;10384;51.940;8.432;2022-12-29T12:36:10;3.37;;;0.90;;
20449;SDS011;10384;51.940;8.432;2022-12-29T12:43:51;2.70;;;0.90;;
20449;SDS011;10384;51.940;8.432;2022-12-29T12:54:14;2.10;;;0.93;;
20449;SDS011;10384;51.940;8.432;2022-12-29T12:56:47;1.97;;;0.80;;
20449;SDS011;10384;51.940;8.432;2022-12-29T12:59:21;3.87;;;0.73;;
20449;SDS011;10384;51.940;8.432;2022-12-29T13:12:15;4.43;;;1.40;;
20449;SDS011;10384;51.940;8.432;2022-12-29T13:20:14;3.60;;;0.93;;
20449;SDS011;10384;51.940;8.432;2022-12-29T13:22:48;6.07;;;1.10;;
20449;SDS011;10384;51.940;8.432;2022-12-29T13:27:51;3.83;;;1.03;;
20449;SDS011;10384;51.940;8.432;2022-12-29T13:30:19;5.63;;;1.00;;
20449;SDS011;10384;51.940;8.432;2022-12-29T13:32:51;4.33;;;1.07;;
20449;SDS011;10384;51.940;8.432;2022-12-29T13:38:21;2.90;;;1.07;;
20449;SDS011;10384;51.940;8.432;2022-12-29T13:40:50;3.07;;;1.10;;
20449;SDS011;10384;51.940;8.432;2022-12-29T13:43:18;6.10;;;1.27;;
20449;SDS011;10384;51.940;8.432;2022-12-29T13:45:45;1.87;;;1.03;;
20449;SDS011;10384;51.940;8.432;2022-12-29T13:48:22;6.10;;;1.30;;
20449;SDS011;10384;51.940;8.432;2022-12-29T13:50:53;6.17;;;1.17;;
20449;SDS011;10384;51.940;8.432;2022-12-29T13:58:46;3.93;;;1.10;;
20449;SDS011;10384;51.940;8.432;2022-12-29T14:01:30;4.43;;;1.10;;
20449;SDS011;10384;51.940;8.432;2022-12-29T14:03:57;5.03;;;1.07;;
20449;SDS011;10384;51.940;8.432;2022-12-29T14:08:54;3.40;;;1.20;;
20449;SDS011;10384;51.940;8.432;2022-12-29T14:11:22;4.67;;;1.20;;
20449;SDS011;10384;51.940;8.432;2022-12-29T14:13:49;3.60;;;0.90;;
20449;SDS011;10384;51.940;8.432;2022-12-29T14:18:50;3.90;;;1.10;;
20449;SDS011;10384;51.940;8.432;2022-12-29T14:21:20;3.60;;;0.90;;
20449;SDS011;10384;51.940;8.432;2022-12-29T14:23:48;4.00;;;1.03;;
20449;SDS011;10384;51.940;8.432;2022-12-29T14:26:16;4.30;;;1.50;;
20449;SDS011;10384;51.940;8.432;2022-12-29T14:28:49;4.60;;;1.07;;
20449;SDS011;10384;51.940;8.432;2022-12-29T14:33:41;4.10;;;1.20;;
20449;SDS011;10384;51.940;8.432;2022-12-29T14:36:33;5.63;;;1.13;;
20449;SDS011;10384;51.940;8.432;2022-12-29T14:38:59;6.07;;;1.20;;
20449;SDS011;10384;51.940;8.432;2022-12-29T14:43:59;1.70;;;0.83;;
20449;SDS011;10384;51.940;8.432;2022-12-29T14:46:25;7.03;;;1.30;;
20449;SDS011;10384;51.940;8.432;2022-12-29T14:48:55;8.20;;;1.10;;
20449;SDS011;10384;51.940;8.432;2022-12-29T14:51:32;5.57;;;1.33;;
20449;SDS011;10384;51.940;8.432;2022-12-29T14:54:00;5.17;;;1.80;;
20449;SDS011;10384;51.940;8.432;2022-12-29T14:56:46;10.47;;;1.30;;
20449;SDS011;10384;51.940;8.432;2022-12-29T14:59:12;5.17;;;1.00;;
20449;SDS011;10384;51.940;8.432;2022-12-29T15:01:43;1.90;;;1.03;;
20449;SDS011;10384;51.940;8.432;2022-12-29T15:04:34;4.17;;;1.50;;
20449;SDS011;10384;51.940;8.432;2022-12-29T15:06:59;6.30;;;1.30;;
20449;SDS011;10384;51.940;8.432;2022-12-29T15:09:35;7.37;;;1.20;;
20449;SDS011;10384;51.940;8.432;2022-12-29T15:12:12;4.77;;;0.90;;
20449;SDS011;10384;51.940;8.432;2022-12-29T15:14:48;2.93;;;1.03;;
20449;SDS011;10384;51.940;8.432;2022-12-29T15:17:31;5.57;;;1.30;;
20449;SDS011;10384;51.940;8.432;2022-12-29T15:19:58;4.50;;;1.10;;
20449;SDS011;10384;51.940;8.432;2022-12-29T15:22:25;7.53;;;1.03;;
20449;SDS011;10384;51.940;8.432;2022-12-29T15:24:51;1.23;;;0.90;;
20449;SDS011;10384;51.940;8.432;2022-12-29T15:27:22;4.63;;;1.10;;
20449;SDS011;10384;51.940;8.432;2022-12-29T15:29:55;2.03;;;0.80;;
20449;SDS011;10384;51.940;8.432;2022-12-29T15:32:23;4.33;;;1.20;;
20449;SDS011;10384;51.940;8.432;2022-12-29T15:34:54;5.17;;;1.90;;
20449;SDS011;10384;51.940;8.432;2022-12-29T15:37:27;5.20;;;0.90;;
20449;SDS011;10384;51.940;8.432;2022-12-29T15:39:54;5.90;;;1.00;;
20449;SDS011;10384;51.940;8.432;2022-12-29T15:42:23;5.77;;;0.93;;
20449;SDS011;10384;51.940;8.432;2022-12-29T15:44:51;7.00;;;1.33;;
20449;SDS011;10384;51.940;8.432;2022-12-29T15:47:21;3.80;;;0.73;;
20449;SDS011;10384;51.940;8.432;2022-12-29T15:49:48;5.13;;;1.17;;
20449;SDS011;10384;51.940;8.432;2022-12-29T15:52:18;5.07;;;1.10;;
20449;SDS011;10384;51.940;8.432;2022-12-29T15:54:44;2.43;;;0.97;;
20449;SDS011;10384;51.940;8.432;2022-12-29T15:57:17;2.83;;;1.07;;
20449;SDS011;10384;51.940;8.432;2022-12-29T15:59:46;5.23;;;1.00;;
20449;SDS011;10384;51.940;8.432;2022-12-29T16:02:13;3.40;;;0.80;;
20449;SDS011;10384;51.940;8.432;2022-12-29T16:04:39;3.17;;;0.80;;
20449;SDS011;10384;51.940;8.432;2022-12-29T16:07:06;6.67;;;1.10;;
20449;SDS011;10384;51.940;8.432;2022-12-29T16:09:46;6.13;;;1.10;;
20449;SDS011;10384;51.940;8.432;2022-12-29T16:12:16;3.40;;;0.80;;
20449;SDS011;10384;51.940;8.432;2022-12-29T16:14:46;6.10;;;0.83;;
20449;SDS011;10384;51.940;8.432;2022-12-29T16:17:14;3.00;;;1.20;;
20449;SDS011;10384;51.940;8.432;2022-12-29T16:19:41;5.10;;;1.13;;
20449;SDS011;10384;51.940;8.432;2022-12-29T16:22:11;2.87;;;0.90;;
20449;SDS011;10384;51.940;8.432;2022-12-29T16:24:38;3.17;;;0.90;;
20449;SDS011;10384;51.940;8.432;2022-12-29T16:27:09;7.57;;;1.13;;
20449;SDS011;10384;51.940;8.432;2022-12-29T16:29:41;5.93;;;1.00;;
20449;SDS011;10384;51.940;8.432;2022-12-29T16:34:53;7.63;;;1.10;;
20449;SDS011;10384;51.940;8.432;2022-12-29T16:37:31;5.33;;;0.80;;
20449;SDS011;10384;51.940;8.432;2022-12-29T16:47:47;5.20;;;0.93;;